Time;durP1;ratioP1;P1;durP2;ratioP2;P2;SDS_P1;SDS_P2;PMS_P1;PMS_P2;Temp;Humidity;BMP_temperature;BMP_pressure;BME280_temperature;BME280_humidity;BME280_pressure;Samples;Min_cycle;Max_cycle;Signal;HPM_P1;HPM_P2
2023/10/09 00:01:17;;;;;;;5.90;3.08;;;;;;;;;;5055437;28;20059;-66
2023/10/09 00:03:54;;;;;;;6.70;2.75;;;;;;;;;;5055803;28;20433;-68
2023/10/09 00:06:37;;;;;;;7.47;3.30;;;;;;;;;;5054641;28;20060;-67
2023/10/09 00:09:17;;;;;;;5.78;2.72;;;;;;;;;;5071186;28;20063;-68
2023/10/09 00:11:44;;;;;;;;;;;;;;;;;;5075799;28;20044;-66
2023/10/09 00:14:13;;;;;;;6.30;2.78;;;;;;;;;;5075548;28;20003;-66
2023/10/09 00:16:48;;;;;;;8.65;3.00;;;;;;;;;;5075318;28;20478;-66
2023/10/09 00:19:17;;;;;;;6.15;2.70;;;;;;;;;;5075361;28;20055;-66
2023/10/09 00:21:47;;;;;;;8.13;2.47;;;;;;;;;;5075391;28;20484;-65
2023/10/09 00:24:13;;;;;;;7.57;2.80;;;;;;;;;;5054182;28;20029;-67
2023/10/09 00:26:48;;;;;;;8.82;3.40;;;;;;;;;;5055143;28;20033;-68
2023/10/09 00:29:21;;;;;;;6.35;2.58;;;;;;;;;;5054998;28;20021;-67
2023/10/09 00:32:03;;;;;;;6.35;2.25;;;;;;;;;;5054835;28;20040;-68
2023/10/09 00:34:29;;;;;;;6.22;2.92;;;;;;;;;;5055081;28;20029;-68
2023/10/09 00:36:57;;;;;;;9.57;3.10;;;;;;;;;;5055042;28;20032;-67
2023/10/09 00:39:41;;;;;;;5.50;2.67;;;;;;;;;;5055032;28;20033;-67
2023/10/09 00:42:07;;;;;;;6.95;2.83;;;;;;;;;;5058716;28;20452;-68
2023/10/09 00:44:39;;;;;;;6.68;2.90;;;;;;;;;;5054778;28;20072;-68
2023/10/09 00:47:23;;;;;;;5.10;3.05;;;;;;;;;;5054751;28;20025;-67
2023/10/09 00:50:00;;;;;;;6.88;2.70;;;;;;;;;;5054848;28;20541;-68
2023/10/09 00:52:33;;;;;;;5.47;2.55;;;;;;;;;;5054574;28;20088;-67
2023/10/09 00:55:05;;;;;;;5.03;2.55;;;;;;;;;;5054757;28;20075;-65
2023/10/09 00:57:40;;;;;;;5.93;2.50;;;;;;;;;;5054680;28;20040;-68
2023/10/09 01:00:23;;;;;;;5.65;2.58;;;;;;;;;;5054596;28;20104;-68
2023/10/09 01:03:10;;;;;;;6.63;2.47;;;;;;;;;;5054705;28;20036;-68
2023/10/09 01:05:36;;;;;;;4.75;2.17;;;;;;;;;;5054186;28;20064;-68
2023/10/09 01:08:08;;;;;;;5.57;2.20;;;;;;;;;;5054815;28;20021;-68
2023/10/09 01:16:22;;;;;;;4.13;2.17;;;;;;;;;;5052211;28;19913;-68
2023/10/09 01:18:57;;;;;;;7.10;2.42;;;;;;;;;;5052325;28;20024;-68
2023/10/09 01:21:26;;;;;;;4.72;2.50;;;;;;;;;;5052009;28;20368;-68
2023/10/09 01:26:39;;;;;;;8.60;2.75;;;;;;;;;;5032083;28;20025;-68
2023/10/09 01:29:10;;;;;;;5.75;2.22;;;;;;;;;;5031890;28;20036;-68
2023/10/09 01:31:43;;;;;;;3.65;2.03;;;;;;;;;;5031514;28;20522;-68
2023/10/09 01:34:09;;;;;;;5.30;2.30;;;;;;;;;;5031958;28;20026;-68
2023/10/09 01:36:39;;;;;;;4.80;2.38;;;;;;;;;;5032010;28;20160;-68
2023/10/09 01:41:51;;;;;;;6.88;2.45;;;;;;;;;;5043410;28;20120;-67
2023/10/09 01:44:18;;;;;;;5.38;2.53;;;;;;;;;;5031731;28;20028;-68
2023/10/09 01:46:45;;;;;;;5.10;2.53;;;;;;;;;;5031778;28;20030;-68
2023/10/09 01:49:17;;;;;;;4.15;2.20;;;;;;;;;;5032464;28;20044;-68
2023/10/09 01:51:43;;;;;;;6.32;2.67;;;;;;;;;;5033466;28;20494;-66
2023/10/09 01:54:09;;;;;;;4.93;2.10;;;;;;;;;;5033603;28;20057;-66
2023/10/09 01:56:39;;;;;;;4.72;2.10;;;;;;;;;;5033434;28;20037;-68
2023/10/09 01:59:05;;;;;;;5.25;2.00;;;;;;;;;;5033674;28;20445;-67
2023/10/09 02:01:33;;;;;;;6.75;2.03;;;;;;;;;;5033481;28;20068;-68
2023/10/09 02:04:05;;;;;;;5.80;2.10;;;;;;;;;;5032344;28;20436;-64
2023/10/09 02:06:32;;;;;;;8.30;2.10;;;;;;;;;;5033622;28;20060;-67
2023/10/09 02:08:59;;;;;;;5.60;2.00;;;;;;;;;;5034144;28;20037;-67
2023/10/09 02:11:45;;;;;;;3.75;1.83;;;;;;;;;;5072959;28;20028;-68
2023/10/09 02:14:19;;;;;;;4.65;1.75;;;;;;;;;;5072880;28;20041;-67
2023/10/09 02:17:02;;;;;;;3.92;1.92;;;;;;;;;;5073377;28;20021;-68
2023/10/09 02:19:31;;;;;;;3.58;1.70;;;;;;;;;;5072744;28;20036;-67
2023/10/09 02:22:01;;;;;;;3.97;1.80;;;;;;;;;;5072022;28;20024;-68
2023/10/09 02:24:28;;;;;;;4.80;2.03;;;;;;;;;;5053080;28;20036;-66
2023/10/09 02:29:23;;;;;;;4.68;1.88;;;;;;;;;;5052934;28;20481;-63
2023/10/09 02:31:52;;;;;;;4.65;1.92;;;;;;;;;;5052619;28;20025;-64
2023/10/09 02:34:24;;;;;;;5.10;1.83;;;;;;;;;;5052951;28;20128;-63
2023/10/09 02:36:50;;;;;;;6.45;1.95;;;;;;;;;;5053085;28;20044;-63
2023/10/09 02:39:28;;;;;;;4.60;1.70;;;;;;;;;;5052836;28;20355;-62
2023/10/09 02:42:01;;;;;;;3.70;1.85;;;;;;;;;;5067214;28;20051;-62
2023/10/09 02:44:29;;;;;;;3.72;1.60;;;;;;;;;;5052533;28;20041;-63
2023/10/09 02:46:57;;;;;;;3.55;1.58;;;;;;;;;;5052699;28;20021;-63
2023/10/09 02:49:24;;;;;;;4.18;1.90;;;;;;;;;;5052627;28;20458;-63
2023/10/09 02:51:53;;;;;;;3.38;1.40;;;;;;;;;;5052307;28;20048;-63
2023/10/09 02:54:34;;;;;;;3.05;1.48;;;;;;;;;;5052236;28;20052;-64
2023/10/09 02:57:07;;;;;;;6.22;2.10;;;;;;;;;;5052538;28;20052;-63
2023/10/09 02:59:44;;;;;;;5.68;1.77;;;;;;;;;;5052556;28;20090;-64
2023/10/09 03:02:10;;;;;;;4.28;1.90;;;;;;;;;;5052479;28;20056;-63
2023/10/09 03:04:38;;;;;;;4.63;2.13;;;;;;;;;;5052601;28;20094;-63
2023/10/09 03:07:05;;;;;;;3.13;1.70;;;;;;;;;;5052516;28;20049;-63
2023/10/09 03:09:32;;;;;;;4.07;1.70;;;;;;;;;;5054323;28;20029;-63
2023/10/09 03:12:06;;;;;;;3.55;1.85;;;;;;;;;;5072388;28;20036;-62
2023/10/09 03:14:35;;;;;;;4.13;1.60;;;;;;;;;;5072470;28;20024;-63
2023/10/09 03:17:01;;;;;;;4.88;2.08;;;;;;;;;;5072551;28;20029;-64
2023/10/09 03:19:28;;;;;;;2.92;1.38;;;;;;;;;;5072283;28;20036;-63
2023/10/09 03:21:54;;;;;;;3.80;1.80;;;;;;;;;;5071703;28;20039;-65
2023/10/09 03:24:22;;;;;;;2.97;1.67;;;;;;;;;;5052085;28;20029;-67
2023/10/09 03:26:49;;;;;;;5.43;1.88;;;;;;;;;;5052292;28;20040;-63
2023/10/09 03:29:15;;;;;;;3.75;1.50;;;;;;;;;;5053744;28;20028;-67
2023/10/09 03:31:43;;;;;;;5.45;1.90;;;;;;;;;;5055759;28;20033;-66
2023/10/09 03:34:10;;;;;;;3.90;1.80;;;;;;;;;;5056265;28;20021;-67
2023/10/09 03:36:39;;;;;;;3.38;1.60;;;;;;;;;;5056185;28;20095;-62
2023/10/09 03:39:18;;;;;;;4.85;1.77;;;;;;;;;;5055879;28;20025;-63
2023/10/09 03:41:47;;;;;;;5.18;2.92;;;;;;;;;;5071568;28;20028;-64
2023/10/09 03:44:16;;;;;;;5.10;1.52;;;;;;;;;;5057296;28;20029;-64
2023/10/09 03:46:44;;;;;;;2.40;1.52;;;;;;;;;;5056085;28;20025;-62
2023/10/09 03:49:11;;;;;;;5.13;1.77;;;;;;;;;;5055757;28;20031;-65
2023/10/09 03:51:37;;;;;;;4.18;1.83;;;;;;;;;;5055407;28;20413;-63
2023/10/09 03:54:13;;;;;;;3.28;1.45;;;;;;;;;;5055525;28;20031;-63
2023/10/09 03:56:39;;;;;;;3.25;1.70;;;;;;;;;;5055721;28;20060;-63
2023/10/09 03:59:05;;;;;;;5.15;1.85;;;;;;;;;;5055757;28;20378;-67
2023/10/09 04:01:37;;;;;;;2.90;1.60;;;;;;;;;;5055515;28;20458;-66
2023/10/09 04:04:05;;;;;;;6.80;1.80;;;;;;;;;;5055818;28;20036;-67
2023/10/09 04:06:34;;;;;;;4.35;2.08;;;;;;;;;;5055334;28;20017;-68
2023/10/09 04:09:13;;;;;;;2.88;1.65;;;;;;;;;;5055445;28;20025;-67
2023/10/09 04:11:43;;;;;;;3.40;1.80;;;;;;;;;;5068229;28;20032;-66
2023/10/09 04:14:21;;;;;;;3.78;1.90;;;;;;;;;;5075408;28;20020;-68
2023/10/09 04:17:04;;;;;;;6.30;2.15;;;;;;;;;;5075499;28;20048;-67
2023/10/09 04:19:38;;;;;;;2.95;1.67;;;;;;;;;;5075100;28;20032;-68
2023/10/09 04:22:06;;;;;;;3.95;2.03;;;;;;;;;;5073151;28;20048;-66
2023/10/09 04:24:41;;;;;;;4.00;1.80;;;;;;;;;;5055225;28;20025;-70
2023/10/09 04:27:08;;;;;;;3.70;1.75;;;;;;;;;;5053867;28;20041;-67
2023/10/09 04:29:39;;;;;;;3.05;1.70;;;;;;;;;;5054903;28;20458;-67
2023/10/09 04:32:08;;;;;;;3.47;1.67;;;;;;;;;;5054920;28;20060;-67
2023/10/09 04:34:43;;;;;;;3.45;1.55;;;;;;;;;;5055138;28;20032;-67
2023/10/09 04:40:11;;;;;;;4.57;1.90;;;;;;;;;;5054995;28;20021;-66
2023/10/09 04:42:36;;;;;;;3.25;1.65;;;;;;;;;;5039550;28;20048;-68
2023/10/09 04:47:37;;;;;;;3.53;1.88;;;;;;;;;;5054701;28;20024;-67
2023/10/09 05:08:21;;;;;;;3.78;1.85;;;;;;;;;;5054452;28;20025;-65
2023/10/09 05:14:11;;;;;;;5.28;2.05;;;;;;;;;;5070973;28;20485;-66
2023/10/09 05:18:59;;;;;;;3.70;1.73;;;;;;;;;;5074016;28;20028;-66
2023/10/09 05:34:34;;;;;;;6.85;2.05;;;;;;;;;;5053764;28;20111;-67
2023/10/09 05:37:17;;;;;;;3.10;1.88;;;;;;;;;;5053854;28;20535;-65
2023/10/09 05:40:21;;;;;;;6.70;2.17;;;;;;;;;;5053730;28;20021;-66
2023/10/09 05:50:37;;;;;;;5.22;2.60;;;;;;;;;;5053679;28;20640;-66
2023/10/09 06:06:42;;;;;;;4.07;2.17;;;;;;;;;;5053291;28;20456;-68
2023/10/09 06:14:25;;;;;;;3.92;1.73;;;;;;;;;;5064257;28;20476;-63
2023/10/09 06:19:48;;;;;;;4.15;1.75;;;;;;;;;;5073249;28;20027;-68
2023/10/09 06:25:08;;;;;;;5.80;2.10;;;;;;;;;;5052823;28;20040;-66
2023/10/09 06:30:24;;;;;;;2.97;1.45;;;;;;;;;;5052491;28;20070;-68
2023/10/09 06:35:30;;;;;;;3.17;1.63;;;;;;;;;;5052666;28;20087;-67
2023/10/09 06:42:08;;;;;;;4.95;1.70;;;;;;;;;;5059737;28;20077;-65
2023/10/09 06:43:52;;;;;;;3.97;1.50;;;;;;;;;;5067675;28;20105;-65
2023/10/09 06:48:55;;;;;;;3.75;2.03;;;;;;;;;;5052556;28;20056;-68
2023/10/09 06:56:29;;;;;;;5.45;2.75;;;;;;;;;;5052424;28;20470;-67
2023/10/09 06:59:15;;;;;;;8.75;4.00;;;;;;;;;;5051456;28;20374;-65
2023/10/09 07:01:45;;;;;;;9.63;4.13;;;;;;;;;;5057540;28;20393;-68
2023/10/09 07:07:16;;;;;;;8.18;4.00;;;;;;;;;;5063312;28;20031;-68
2023/10/09 07:12:32;;;;;;;6.35;4.65;;;;;;;;;;5010226;28;20051;-69
2023/10/09 07:15:01;;;;;;;5.63;2.70;;;;;;;;;;5018438;28;20068;-65
2023/10/09 07:20:09;;;;;;;5.18;2.90;;;;;;;;;;5028469;28;20489;-67
2023/10/09 07:22:39;;;;;;;4.65;2.25;;;;;;;;;;5023932;28;20123;-65
2023/10/09 07:25:16;;;;;;;5.57;2.28;;;;;;;;;;5010296;28;20050;-67
2023/10/09 07:27:45;;;;;;;4.47;1.70;;;;;;;;;;5010413;28;20026;-69
2023/10/09 07:38:11;;;;;;;1.73;1.20;;;;;;;;;;5010571;28;20057;-63
2023/10/09 07:40:55;;;;;;;2.40;1.40;;;;;;;;;;5004617;28;20037;-65
2023/10/09 07:48:54;;;;;;;4.07;1.85;;;;;;;;;;5000524;28;20040;-64
2023/10/09 07:51:23;;;;;;;4.05;1.60;;;;;;;;;;5031827;28;20081;-65
2023/10/09 07:54:06;;;;;;;2.97;1.35;;;;;;;;;;5031836;28;20083;-64
2023/10/09 07:56:38;;;;;;;4.95;1.55;;;;;;;;;;5069273;28;20087;-64
2023/10/09 07:59:10;;;;;;;2.83;1.25;;;;;;;;;;5071791;28;20074;-64
2023/10/09 08:01:52;;;;;;;2.47;1.05;;;;;;;;;;5071749;28;20032;-64
2023/10/09 08:04:47;;;;;;;4.93;2.35;;;;;;;;;;5059695;28;20111;-64
2023/10/09 08:07:25;;;;;;;3.38;1.70;;;;;;;;;;5052477;28;20083;-64
2023/10/09 08:17:59;;;;;;;3.35;1.52;;;;;;;;;;5075524;28;20385;-64
2023/10/09 08:20:26;;;;;;;3.28;1.92;;;;;;;;;;5075400;28;20020;-65
2023/10/09 08:22:55;;;;;;;4.05;1.80;;;;;;;;;;5066759;28;20390;-64
2023/10/09 08:25:35;;;;;;;3.35;1.67;;;;;;;;;;5054888;28;20020;-65
2023/10/09 08:28:39;;;;;;;4.88;1.88;;;;;;;;;;5054866;28;20032;-65
2023/10/09 08:34:03;;;;;;;4.18;1.80;;;;;;;;;;5054865;28;20139;-65
2023/10/09 08:36:09;;;;;;;6.47;2.55;;;;;;;;;;5051943;28;20052;-65
2023/10/09 08:38:35;;;;;;;4.68;1.80;;;;;;;;;;5054865;28;20025;-65
2023/10/09 08:41:22;;;;;;;3.83;1.83;;;;;;;;;;5054795;28;20022;-65
2023/10/09 08:43:53;;;;;;;4.03;1.55;;;;;;;;;;5054717;28;20103;-65
2023/10/09 08:46:29;;;;;;;1.98;1.25;;;;;;;;;;5054802;28;20033;-64
2023/10/09 08:48:56;;;;;;;4.10;1.63;;;;;;;;;;5054960;28;20029;-64
2023/10/09 08:51:24;;;;;;;2.97;1.48;;;;;;;;;;5054149;28;20520;-64
2023/10/09 08:53:49;;;;;;;3.83;1.58;;;;;;;;;;5054616;28;20529;-65
2023/10/09 08:56:22;;;;;;;2.97;1.75;;;;;;;;;;5053216;28;20106;-64
2023/10/09 08:59:01;;;;;;;4.57;1.55;;;;;;;;;;5054717;28;20021;-64
2023/10/09 09:01:31;;;;;;;5.13;1.90;;;;;;;;;;5054440;28;20784;-64
2023/10/09 09:03:57;;;;;;;3.50;1.92;;;;;;;;;;5054626;28;20159;-64
2023/10/09 09:06:23;;;;;;;5.43;2.58;;;;;;;;;;5054393;28;20116;-66
2023/10/09 09:08:54;;;;;;;3.95;1.60;;;;;;;;;;5056376;28;20017;-65
2023/10/09 09:11:24;;;;;;;5.50;1.50;;;;;;;;;;5054103;28;20393;-64
2023/10/09 09:14:02;;;;;;;3.73;1.80;;;;;;;;;;5054327;28;20098;-65
2023/10/09 09:16:31;;;;;;;4.93;1.92;;;;;;;;;;5062691;28;20028;-64
2023/10/09 09:19:11;;;;;;;4.13;1.60;;;;;;;;;;5074315;28;20458;-64
2023/10/09 09:21:42;;;;;;;4.25;1.90;;;;;;;;;;5073544;28;20442;-64
2023/10/09 09:24:26;;;;;;;3.70;1.60;;;;;;;;;;5074154;28;20028;-66
2023/10/09 09:26:59;;;;;;;3.78;1.75;;;;;;;;;;5055296;28;20063;-64
2023/10/09 09:29:36;;;;;;;2.67;1.30;;;;;;;;;;5053913;28;20083;-65
2023/10/09 09:32:06;;;;;;;5.22;1.92;;;;;;;;;;5053619;28;20111;-64
2023/10/09 09:34:48;;;;;;;6.88;1.50;;;;;;;;;;5053869;28;20135;-64
2023/10/09 09:37:24;;;;;;;3.08;1.60;;;;;;;;;;5053920;28;20036;-65
2023/10/09 09:39:51;;;;;;;4.45;1.65;;;;;;;;;;5053511;28;20086;-64
2023/10/09 09:42:18;;;;;;;3.20;1.35;;;;;;;;;;5033893;28;20041;-65
2023/10/09 09:44:45;;;;;;;6.60;1.55;;;;;;;;;;5033943;28;20032;-64
2023/10/09 09:47:23;;;;;;;3.03;1.30;;;;;;;;;;5043910;28;20108;-65
2023/10/09 09:49:51;;;;;;;2.40;1.05;;;;;;;;;;5053630;28;20371;-64
2023/10/09 09:52:18;;;;;;;2.17;1.20;;;;;;;;;;5053238;28;20044;-65
2023/10/09 09:54:44;;;;;;;3.13;1.70;;;;;;;;;;5053392;28;20095;-65
2023/10/09 09:57:15;;;;;;;5.80;2.03;;;;;;;;;;5053388;28;20462;-68
2023/10/09 09:59:49;;;;;;;3.70;1.27;;;;;;;;;;5053468;28;20199;-65
2023/10/09 10:02:20;;;;;;;3.20;1.35;;;;;;;;;;5053344;28;20033;-68
2023/10/09 10:04:51;;;;;;;2.22;1.10;;;;;;;;;;5053572;28;20051;-69
2023/10/09 10:07:21;;;;;;;2.97;1.23;;;;;;;;;;5054191;28;20029;-68
2023/10/09 10:09:48;;;;;;;2.28;1.33;;;;;;;;;;5051452;28;20033;-67
2023/10/09 10:12:32;;;;;;;2.35;1.10;;;;;;;;;;5053268;28;20032;-67
2023/10/09 10:15:17;;;;;;;3.30;1.40;;;;;;;;;;5053338;28;20074;-69
2023/10/09 10:17:58;;;;;;;4.72;1.33;;;;;;;;;;5070158;28;20458;-67
2023/10/09 10:20:25;;;;;;;2.72;1.52;;;;;;;;;;5072986;28;20043;-68
2023/10/09 10:23:12;;;;;;;3.28;1.42;;;;;;;;;;5073025;28;20025;-65
2023/10/09 10:25:49;;;;;;;3.03;1.30;;;;;;;;;;5057896;28;20093;-68
2023/10/09 10:28:28;;;;;;;3.17;1.25;;;;;;;;;;5052953;28;20510;-67
2023/10/09 10:30:55;;;;;;;5.57;1.60;;;;;;;;;;5052714;28;20017;-66
2023/10/09 10:33:22;;;;;;;4.63;1.60;;;;;;;;;;5052397;28;20382;-68
2023/10/09 10:35:52;;;;;;;2.90;1.27;;;;;;;;;;5052925;28;20060;-67
2023/10/09 10:38:38;;;;;;;2.67;1.30;;;;;;;;;;5052269;28;20398;-68
2023/10/09 10:41:16;;;;;;;3.45;1.60;;;;;;;;;;5052294;28;20056;-69
2023/10/09 10:46:24;;;;;;;4.50;1.38;;;;;;;;;;5052776;28;20501;-68
2023/10/09 10:48:59;;;;;;;5.47;1.70;;;;;;;;;;5052606;28;20033;-68
2023/10/09 10:51:34;;;;;;;3.63;1.58;;;;;;;;;;5052435;28;20049;-69
2023/10/09 10:54:26;;;;;;;2.47;1.40;;;;;;;;;;5050960;28;20397;-66
2023/10/09 10:56:51;;;;;;;3.75;1.65;;;;;;;;;;5032547;28;20502;-68
2023/10/09 10:59:26;;;;;;;6.13;1.83;;;;;;;;;;5032479;28;20041;-68
2023/10/09 11:07:08;;;;;;;3.15;1.40;;;;;;;;;;5039629;28;20025;-68
2023/10/09 11:09:58;;;;;;;3.58;1.45;;;;;;;;;;5050776;28;20032;-68
2023/10/09 11:12:37;;;;;;;3.50;1.77;;;;;;;;;;5052454;28;20103;-68
2023/10/09 11:18:07;;;;;;;6.35;1.80;;;;;;;;;;5068598;28;20033;-65
2023/10/09 11:20:38;;;;;;;5.65;2.20;;;;;;;;;;5071045;28;20017;-65
2023/10/09 11:25:33;;;;;;;5.53;1.50;;;;;;;;;;5064793;28;20013;-65
2023/10/09 11:28:15;;;;;;;4.05;1.50;;;;;;;;;;5052313;28;20102;-68
2023/10/09 11:30:40;;;;;;;5.38;1.83;;;;;;;;;;5050943;28;20021;-67
2023/10/09 11:33:14;;;;;;;2.88;1.60;;;;;;;;;;5052287;28;20433;-68
2023/10/09 11:35:42;;;;;;;4.72;1.70;;;;;;;;;;5052032;28;20033;-67
2023/10/09 11:38:20;;;;;;;6.13;1.88;;;;;;;;;;5051322;28;20033;-66
2023/10/09 11:43:51;;;;;;;11.80;1.80;;;;;;;;;;5051978;28;20418;-66
2023/10/09 11:46:36;;;;;;;3.10;1.52;;;;;;;;;;5052081;28;20035;-68
2023/10/09 11:54:50;;;;;;;4.18;1.52;;;;;;;;;;5043524;28;20414;-67
2023/10/09 11:57:17;;;;;;;4.65;1.45;;;;;;;;;;5054566;28;20034;-65
2023/10/09 11:59:43;;;;;;;3.75;1.48;;;;;;;;;;5055755;28;20064;-65
2023/10/09 12:02:13;;;;;;;4.20;1.55;;;;;;;;;;5055842;28;20049;-66
2023/10/09 12:04:42;;;;;;;2.70;1.40;;;;;;;;;;5055709;28;20482;-69
2023/10/09 12:07:10;;;;;;;4.68;1.42;;;;;;;;;;5055413;28;20029;-64
2023/10/09 12:09:39;;;;;;;4.45;1.85;;;;;;;;;;5055734;28;20029;-65
2023/10/09 12:12:07;;;;;;;4.07;1.60;;;;;;;;;;5055443;28;20105;-65
2023/10/09 12:14:33;;;;;;;3.38;1.55;;;;;;;;;;5055486;28;20470;-67
2023/10/09 12:17:05;;;;;;;3.75;1.40;;;;;;;;;;5062489;28;20028;-67
2023/10/09 12:19:35;;;;;;;4.18;1.58;;;;;;;;;;5074795;28;20028;-67
2023/10/09 12:22:03;;;;;;;3.70;1.73;;;;;;;;;;5075333;28;20036;-65
2023/10/09 12:24:29;;;;;;;5.82;2.28;;;;;;;;;;5075097;28;20045;-66
2023/10/09 12:26:55;;;;;;;7.25;2.10;;;;;;;;;;5056899;28;20539;-67
2023/10/09 12:29:21;;;;;;;5.22;2.20;;;;;;;;;;5055060;28;20427;-65
2023/10/09 12:31:46;;;;;;;2.58;1.40;;;;;;;;;;5053802;28;20146;-65
2023/10/09 12:34:16;;;;;;;3.20;1.40;;;;;;;;;;5054736;28;20029;-68
2023/10/09 12:36:45;;;;;;;4.03;1.52;;;;;;;;;;5055060;28;20068;-67
2023/10/09 12:39:18;;;;;;;6.75;1.90;;;;;;;;;;5054800;28;20029;-69
2023/10/09 12:41:44;;;;;;;3.40;1.60;;;;;;;;;;5054860;28;20163;-66
2023/10/09 12:44:18;;;;;;;5.30;1.77;;;;;;;;;;5054899;28;20064;-68
2023/10/09 12:47:04;;;;;;;2.83;1.30;;;;;;;;;;5054975;28;20469;-68
2023/10/09 12:49:30;;;;;;;3.10;1.42;;;;;;;;;;5054277;28;20025;-68
2023/10/09 12:51:57;;;;;;;3.85;1.50;;;;;;;;;;5054619;28;20048;-68
2023/10/09 12:54:28;;;;;;;7.30;2.15;;;;;;;;;;5054676;28;20466;-67
2023/10/09 12:56:59;;;;;;;4.68;1.67;;;;;;;;;;5054648;28;20056;-68
2023/10/09 12:59:24;;;;;;;3.22;1.73;;;;;;;;;;5054596;28;20114;-65
2023/10/09 13:01:57;;;;;;;3.42;1.70;;;;;;;;;;5054256;28;20496;-68
2023/10/09 13:04:23;;;;;;;3.45;1.75;;;;;;;;;;5054352;28;20029;-64
2023/10/09 13:06:53;;;;;;;4.18;1.90;;;;;;;;;;5054268;28;20033;-64
2023/10/09 13:09:32;;;;;;;5.95;1.77;;;;;;;;;;5055612;28;20374;-65
2023/10/09 13:12:00;;;;;;;4.80;2.03;;;;;;;;;;5054370;28;20059;-68
2023/10/09 13:14:33;;;;;;;4.55;1.60;;;;;;;;;;5054344;28;20390;-66
2023/10/09 13:16:59;;;;;;;4.85;1.80;;;;;;;;;;5052913;28;20494;-69
2023/10/09 13:19:25;;;;;;;5.13;1.85;;;;;;;;;;5072626;28;20041;-69
2023/10/09 13:21:51;;;;;;;9.63;2.00;;;;;;;;;;5073868;28;20021;-64
2023/10/09 13:24:16;;;;;;;5.20;1.60;;;;;;;;;;5074189;28;20032;-67
2023/10/09 13:26:45;;;;;;;4.88;1.60;;;;;;;;;;5057772;28;20027;-65
2023/10/09 13:29:11;;;;;;;8.43;2.00;;;;;;;;;;5054099;28;20032;-67
2023/10/09 13:31:37;;;;;;;3.20;1.75;;;;;;;;;;5053403;28;20024;-64
2023/10/09 13:34:09;;;;;;;3.67;1.60;;;;;;;;;;5053642;28;20078;-65
2023/10/09 13:36:35;;;;;;;5.38;1.67;;;;;;;;;;5053915;28;20120;-65
2023/10/09 13:41:46;;;;;;;7.50;2.20;;;;;;;;;;5053807;28;20048;-65
2023/10/09 13:44:12;;;;;;;2.75;1.60;;;;;;;;;;5053809;28;20382;-64
2023/10/09 13:46:44;;;;;;;4.28;1.80;;;;;;;;;;5053482;28;20028;-64
2023/10/09 13:49:13;;;;;;;3.72;1.83;;;;;;;;;;5053606;28;20115;-65
2023/10/09 13:51:46;;;;;;;4.35;1.88;;;;;;;;;;5053140;28;20046;-64
2023/10/09 13:54:21;;;;;;;3.15;1.60;;;;;;;;;;5053363;28;20403;-65
2023/10/09 13:56:52;;;;;;;4.03;1.73;;;;;;;;;;5033524;28;20479;-65
2023/10/09 13:59:23;;;;;;;4.40;2.00;;;;;;;;;;5033538;28;20387;-65
2023/10/09 14:01:54;;;;;;;;;;;;;;;;;;5033569;28;20501;-64
2023/10/09 14:04:20;;;;;;;4.20;1.85;;;;;;;;;;5033160;28;19913;-64
2023/10/09 14:06:47;;;;;;;5.30;1.77;;;;;;;;;;5032222;28;20494;-64
2023/10/09 14:09:27;;;;;;;7.38;1.98;;;;;;;;;;5051020;28;20021;-64
2023/10/09 14:12:10;;;;;;;4.63;1.95;;;;;;;;;;5053331;28;20021;-66
2023/10/09 14:14:47;;;;;;;7.78;3.30;;;;;;;;;;5052531;28;20025;-65
2023/10/09 14:17:19;;;;;;;5.20;2.00;;;;;;;;;;5052951;28;20072;-65
2023/10/09 14:19:47;;;;;;;5.95;2.50;;;;;;;;;;5067043;28;20109;-64
2023/10/09 14:22:17;;;;;;;16.35;3.58;;;;;;;;;;5072731;28;20211;-65
2023/10/09 14:24:47;;;;;;;12.15;4.63;;;;;;;;;;5073020;28;20113;-64
2023/10/09 14:27:17;;;;;;;8.68;2.63;;;;;;;;;;5032738;28;20022;-65
2023/10/09 14:29:46;;;;;;;;;;;;;;;;;;5033224;28;20057;-64
2023/10/09 14:32:14;;;;;;;8.82;2.30;;;;;;;;;;5046960;28;19919;-66
2023/10/09 14:34:46;;;;;;;4.10;2.10;;;;;;;;;;5052760;28;20028;-65
2023/10/09 14:37:12;;;;;;;3.45;1.90;;;;;;;;;;5052967;28;20374;-66
2023/10/09 14:39:40;;;;;;;3.63;1.90;;;;;;;;;;5052828;28;20025;-64
2023/10/09 14:42:09;;;;;;;7.30;2.45;;;;;;;;;;5055317;28;20397;-66
2023/10/09 14:44:37;;;;;;;5.20;2.20;;;;;;;;;;5069344;28;20397;-65
2023/10/09 14:47:05;;;;;;;3.25;1.80;;;;;;;;;;5052596;28;20374;-67
2023/10/09 14:49:43;;;;;;;4.00;1.98;;;;;;;;;;5052501;28;20104;-65
2023/10/09 14:52:09;;;;;;;6.63;2.03;;;;;;;;;;5052265;28;20122;-64
2023/10/09 14:54:35;;;;;;;5.00;2.25;;;;;;;;;;5051709;28;20017;-65
2023/10/09 14:57:01;;;;;;;5.05;2.55;;;;;;;;;;5052271;28;20079;-66
2023/10/09 14:59:26;;;;;;;3.80;1.92;;;;;;;;;;5050914;28;20024;-64
2023/10/09 15:01:53;;;;;;;7.07;2.83;;;;;;;;;;5051067;28;20021;-65
2023/10/09 15:04:19;;;;;;;4.45;2.13;;;;;;;;;;5051335;28;20075;-65
2023/10/09 15:06:49;;;;;;;4.78;2.28;;;;;;;;;;5051593;28;20052;-64
2023/10/09 15:09:21;;;;;;;5.00;2.50;;;;;;;;;;5052862;28;20025;-64
2023/10/09 15:11:48;;;;;;;8.73;2.05;;;;;;;;;;5071668;28;20036;-65
2023/10/09 15:14:18;;;;;;;4.05;1.60;;;;;;;;;;5069119;28;20063;-64
2023/10/09 15:16:45;;;;;;;5.10;2.50;;;;;;;;;;5052294;28;20037;-64
2023/10/09 15:19:11;;;;;;;5.35;2.00;;;;;;;;;;5054729;28;20037;-65
2023/10/09 15:21:43;;;;;;;5.25;2.55;;;;;;;;;;5071225;28;20089;-69
2023/10/09 15:24:15;;;;;;;5.32;2.05;;;;;;;;;;5052489;28;20493;-65
2023/10/09 15:26:55;;;;;;;3.20;1.80;;;;;;;;;;5056671;28;20032;-65
2023/10/09 15:29:28;;;;;;;4.00;2.10;;;;;;;;;;5056123;28;20194;-68
2023/10/09 15:32:04;;;;;;;4.35;2.30;;;;;;;;;;5056477;28;20090;-65
2023/10/09 15:34:38;;;;;;;6.32;3.00;;;;;;;;;;5056484;28;20089;-67
2023/10/09 15:37:07;;;;;;;6.72;2.45;;;;;;;;;;5056553;28;20497;-64
2023/10/09 15:39:34;;;;;;;7.60;2.70;;;;;;;;;;5051021;28;20032;-64
2023/10/09 15:41:59;;;;;;;6.05;3.08;;;;;;;;;;5065154;28;20024;-64
2023/10/09 15:44:24;;;;;;;6.90;2.80;;;;;;;;;;5046676;28;20025;-65
2023/10/09 15:46:53;;;;;;;9.75;3.35;;;;;;;;;;5055599;28;20029;-68
2023/10/09 15:49:18;;;;;;;7.47;2.85;;;;;;;;;;5052288;28;20094;-65
2023/10/09 15:51:44;;;;;;;5.65;2.60;;;;;;;;;;5046080;28;20045;-65
2023/10/09 15:54:12;;;;;;;8.38;3.17;;;;;;;;;;5053190;28;20031;-64
2023/10/09 15:56:41;;;;;;;6.97;2.95;;;;;;;;;;5055733;28;20094;-66
2023/10/09 15:59:07;;;;;;;5.77;3.10;;;;;;;;;;5055150;28;20033;-64
2023/10/09 16:01:33;;;;;;;9.38;3.13;;;;;;;;;;5055678;28;20262;-65
2023/10/09 16:04:01;;;;;;;5.35;3.15;;;;;;;;;;5055045;28;20056;-66
2023/10/09 16:06:30;;;;;;;5.63;2.67;;;;;;;;;;5060455;28;20060;-64
2023/10/09 16:08:56;;;;;;;4.85;2.78;;;;;;;;;;5054427;28;20029;-66
2023/10/09 16:11:26;;;;;;;8.07;3.40;;;;;;;;;;5055320;28;20091;-66
2023/10/09 16:13:55;;;;;;;6.50;3.65;;;;;;;;;;5055351;28;20029;-67
2023/10/09 16:16:28;;;;;;;7.37;4.00;;;;;;;;;;5054455;28;20025;-68
2023/10/09 16:18:55;;;;;;;7.07;3.60;;;;;;;;;;5055213;28;20071;-68
2023/10/09 16:21:24;;;;;;;6.63;3.95;;;;;;;;;;5054931;28;20033;-67
2023/10/09 16:23:50;;;;;;;7.85;4.05;;;;;;;;;;5054878;28;20048;-67
2023/10/09 16:26:17;;;;;;;5.63;3.55;;;;;;;;;;5054844;28;20025;-70
2023/10/09 16:28:43;;;;;;;11.88;6.43;;;;;;;;;;5054965;28;20346;-68
2023/10/09 16:31:14;;;;;;;9.70;7.18;;;;;;;;;;5055057;28;20021;-69
2023/10/09 16:33:40;;;;;;;7.95;4.80;;;;;;;;;;5054833;28;20120;-69
2023/10/09 16:36:06;;;;;;;9.50;4.07;;;;;;;;;;5054526;28;20104;-68
2023/10/09 16:38:35;;;;;;;8.27;4.13;;;;;;;;;;5054551;28;20064;-69
2023/10/09 16:41:07;;;;;;;7.85;3.83;;;;;;;;;;5054566;28;20455;-67
2023/10/09 16:43:33;;;;;;;6.00;3.70;;;;;;;;;;5054902;28;20102;-69
2023/10/09 16:46:08;;;;;;;8.25;3.70;;;;;;;;;;5054757;28;20080;-67
2023/10/09 16:48:39;;;;;;;6.57;3.88;;;;;;;;;;5054728;28;20378;-68
2023/10/09 16:51:09;;;;;;;8.50;4.30;;;;;;;;;;5053319;28;20498;-68
2023/10/09 16:53:38;;;;;;;8.32;3.88;;;;;;;;;;5054229;28;20033;-68
2023/10/09 16:56:09;;;;;;;8.88;4.28;;;;;;;;;;5054517;28;20087;-68
2023/10/09 16:58:39;;;;;;;9.52;4.80;;;;;;;;;;5054789;28;20029;-65
2023/10/09 17:01:10;;;;;;;8.55;4.30;;;;;;;;;;5054636;28;20364;-65
2023/10/09 17:03:47;;;;;;;8.65;4.60;;;;;;;;;;5054556;28;20033;-64
2023/10/09 17:06:17;;;;;;;7.57;4.38;;;;;;;;;;5054553;28;20104;-65
2023/10/09 17:08:45;;;;;;;;;;;;;;;;;;5055067;28;20371;-67
2023/10/09 17:11:20;;;;;;;9.25;4.47;;;;;;;;;;5054161;28;19912;-67
2023/10/09 17:13:49;;;;;;;10.23;4.50;;;;;;;;;;5054399;28;20120;-68
2023/10/09 17:16:24;;;;;;;10.48;5.25;;;;;;;;;;5054258;28;20096;-68
2023/10/09 17:18:52;;;;;;;12.73;4.93;;;;;;;;;;5054306;28;20025;-64
2023/10/09 17:21:23;;;;;;;8.63;4.78;;;;;;;;;;5056581;28;20029;-69
2023/10/09 17:23:48;;;;;;;8.52;4.47;;;;;;;;;;5074023;28;20136;-68
2023/10/09 17:26:17;;;;;;;9.25;4.85;;;;;;;;;;5061261;28;20060;-64
2023/10/09 17:28:43;;;;;;;8.15;4.68;;;;;;;;;;5054120;28;20582;-65
2023/10/09 17:31:09;;;;;;;10.68;5.60;;;;;;;;;;5054078;28;20509;-68
2023/10/09 17:33:34;;;;;;;10.95;5.32;;;;;;;;;;5053982;28;20028;-64
2023/10/09 17:36:01;;;;;;;11.00;5.43;;;;;;;;;;5054109;28;20463;-65
2023/10/09 17:38:30;;;;;;;11.95;5.70;;;;;;;;;;5053768;28;20180;-67
2023/10/09 17:40:57;;;;;;;11.38;5.40;;;;;;;;;;5053960;28;20458;-65
2023/10/09 17:43:24;;;;;;;10.15;5.75;;;;;;;;;;5053701;28;20019;-64
2023/10/09 17:45:54;;;;;;;8.38;5.50;;;;;;;;;;5053798;28;20053;-64
2023/10/09 17:48:23;;;;;;;10.57;5.27;;;;;;;;;;5053688;28;20028;-67